AirNav   Pilot Hours Calculator
 
 941 users online  

MU17 Ray County Memorial Hospital Heliport
Richmond, Missouri, USA

GOING TO RICHMOND?


FAA INFORMATION EFFECTIVE 05 DECEMBER 2019

Location

FAA Identifier: MU17
Lat/Long: 39-15-48.1300N 093-57-25.3800W
39-15.802167N 093-57.423000W
39.2633694,-93.9570500
(estimated)
Elevation: 827 ft. / 252 m (estimated)
From city: 1 mile WNW of RICHMOND, MO
Time zone: UTC -6 (UTC -5 during Daylight Saving Time)
Zip code: 64085

Heliport Operations

Heliport use: Private use. Permission required prior to landing
Activation date: 03/2016
Control tower: no
ARTCC: KANSAS CITY CENTER
FSS: COLUMBIA FLIGHT SERVICE STATION
Attendance: UNATNDD
Wind indicator: yes
Segmented circle: no

Heliport Communications

WX AWOS-3 at GPH (17 nm W): 120.275 (816-407-3399)

Nearby radio navigation aids

VOR radial/distance  VOR name  Freq  Var
ANXr031/12.9NAPOLEON VORTAC114.0007E
BQSr187/22.4BRAYMER VOR/DME111.2003E
MCIr087/36.3KANSAS CITY VORTAC113.2505E

Heliport Services

Runway Information

Helipad H1

Dimensions: 40 x 40 ft. / 12 x 12 m
Surface: concrete/gravel
Latitude: 39-15.802167N
Longitude: 093-57.423000W
Traffic pattern: leftleft

Heliport Ownership and Management from official FAA records

Ownership: Privately-owned
Owner: RAY COUNTY MEMORIAL HOSPITAL
904 WOLLARD BLVD
RICHMOND, MO 64085
Phone 816-470-5432
Manager: EARL SHEEHY, CEO
904 WOLLARD BLVD
RICHMOND, MO 64085
Phone 816-470-5432

Additional Remarks

HOSPITAL HAS MRI MACHINE. PILOTS NEED TO CONTACT HOSPITAL PRIOR TO LANDING FOR POTENTIAL INTERFERENCE.
FOR CD CTC KANSAS CITY ARTCC AT 913-254-8508.

Instrument Procedures

There are no published instrument procedures at MU17.

Some nearby airports with instrument procedures:

3EX - Excelsior Springs Memorial Airport (12 nm W)
KGPH - Midwest National Air Center Airport (17 nm W)
KHIG - Higginsville Industrial Municipal Airport (17 nm SE)
3GV - East Kansas City Airport (19 nm SW)
KLXT - Lee's Summit Municipal Airport (27 nm SW)
 
Loc | Ops | Rwys | IFR | FBO | Links
Com | Nav | Svcs | Stats | Notes
Aerial photo
No photo
 
Airport distance calculator
Flying to Ray County Memorial Hospital Heliport? Find the distance to fly.

From to MU17

Sunrise and sunset
Times for 12-Dec-2019
 Local
(UTC-6)
 Zulu
(UTC)
Morning civil twilight06:5712:57
Sunrise07:2713:27
Sunset16:5222:52
Evening civil twilight17:2223:22

Current date and time
Zulu (UTC)  12-Dec-2019 23:38:50
Local (UTC-6)  12-Dec-2019 17:38:50
 
METAR
KGPH 
17nm W 
122315Z AUTO 00000KT 10SM BKN042 08/M01 A3004 RMK AO2
KLXT 
26nm SW 
122253Z AUTO 22006KT 10SM FEW047 08/M02 A3003 RMK AO2 SLP174 T00831017
KRCM 
30nm S 
122315Z AUTO RMK AO2 TSNO PWINO
KMKC 
31nm W 
122254Z 21006KT 10SM BKN040 08/M01 A3003 RMK AO2 SLP170 T00781011
KEZZ 
32nm NW 
122315Z AUTO 24006KT 7SM HZ SCT034 06/M01 A3003 RMK AO2 T00591008
TAF
KMKC 
31nm W 
121734Z 1218/1318 22015G25KT P6SM BKN040 OVC050 FM122100 20014KT P6SM SCT120 FM130000 18005KT P6SM BKN120
KMCI 
36nm W 
121734Z 1218/1318 22015G30KT P6SM BKN035 OVC050 FM122100 20014KT P6SM SCT120 FM130000 18005KT P6SM BKN120
KSZL 
38nm SE 
121920Z 1219/1401 21015G25KT 9999 BKN070 OVC250 620701 QNH2999INS TEMPO 1219/1221 21020G35KT 510002 BECMG 1221/1222 20010G15KT 9999 BKN070 OVC250 620701 QNH3001INS BECMG 1300/1301 20009KT 9999 BKN050 620502 QNH2989INS BECMG 1316/1317 20006KT 9999 BKN025 QNH2976INS TX12/1220Z TN03/1310Z
NOTAMs
Click for the latest NOTAMs
NOTAMs are issued by the DoD/FAA and will open in a separate window not controlled by AirNav.

 

 
 

Would you like to see your business listed on this page?

 If your business provides an interesting product or service to pilots, flight crews, aircraft, or users of the Ray County Memorial Hospital Heliport, you should consider listing it here.  To start the listing process, click on the button below
 
Add a business
 

Other Pages about Ray County Memorial Hospital Heliport

Update a link
 
Copyright © AirNav, LLC. All rights reserved. Privacy Policy  Contact